Sunday, March 29, 2015
06:08 UTC
  |  Log In   |  Register Free
Airport Search:

Raton Municipal/Crews Field Airport
(KRTN)

Raton Municipal/Crews Field Airport Diagram
No Airport Diagram Available

FAA data valid effective March 05, 2015 - April 30, 2015 (unless otherwise noted).

 
 
 
 
 
 
 
 
 
 
 
 
 
 

Current Aviation Weather for Raton Municipal/Crews Field Airport (KRTN)

The most recent METAR observation for KRTN was updated at: 1414
METAR Summary (Translated METAR)
KRTN
251353Z AUTO 07003KT 10SM CLR 04/M07 A2995 RMK AO2 SLP097 T00441067
KTAD
251354Z AUTO 32009KT 10SM CLR 03/M06 A3000 RMK AO2 SLP132 T00331061
(32 nm NE from KRTN)
KAXX
251355Z AUTO 18004KT 10SM CLR M02/M05 A3006 RMK AO2 T10221054
(42.6 nm SW from KRTN)
TAF
No TAF information found within 50 nm of KRTN
  Airport Weather Conditions for KRTN

 Current Weather at RTN
63° F
Fair and Breezy
West winds at 21.9 mph
RTN NOAA Radar

Pressure: 30.07 in
Humidity: 17%
Wind: West at 21.9 MPH (19 KT)
Dew Point: 17.1°F
Visibility: 10.00 mi


Airport Weather Forecast for KRTN

Translated METAR and TAF for KRTN
Translated METAR for KRTN (0608 UTC 29 March 2015)
found at http://aviationweather.gov/adds/metars/
 
METAR text: KRTN 290553Z AUTO 30014KT 10SM CLR 17/M09 A3008 RMK AO2 PK WND 27028/0455 SLP100 T01721089 10239 20150 55001
Conditions at: KRTN (RATON , NM, US) observed 0553 UTC 29 March 2015
Temperature: 17.2°C (63°F)
Dewpoint: -8.9°C (16°F) [RH = 16%]
Pressure (altimeter): 30.08 inches Hg (1018.7 mb)
[Sea-level pressure: 1010.0 mb]
Winds: from the WNW (300 degrees) at 16 MPH (14 knots; 7.3 m/s)
Visibility: 10 or more miles (16+ km)
Ceiling: at least 12,000 feet AGL
Clouds: sky clear below 12,000 feet AGL
Weather: automated observation with no human augmentation;
there may or may not be significant weather present at this time
Translated TAF for KRTN

There is no translated TAF available for this airport

Find All Airport Services Find A Hotel Find A Rental Car Find A Golf Course Find A Restaurant $100 Hamburger



FBO's on the Field
FBO Company Facility Photos Services Transportation Aviation Fuel Prices: Prices include tax
Catering Weather Repair Courtesy Rental Type 100LL JetA JetA+ MOGAS 8087
 
Express Aviation Services

This FBO has not yet been rated
FS:Phillips 66
Last Updated: Mar-16
Login to update fuel prices
SS:
Contact Express Aviation ServicesMore FBO Information
 
Add another FBO Facility Photos Catering Weather Repair Courtesy Rental Type 100LL JetA JetA+ MOGAS 8087
Services Transportation Aviation Fuel Prices: Prices include tax


model-print
model-print
model-print
model-print